Time;durP1;ratioP1;P1;durP2;ratioP2;P2;SDS_P1;SDS_P2;PMS_P1;PMS_P2;Temp;Humidity;BMP_temperature;BMP_pressure;BME280_temperature;BME280_humidity;BME280_pressure;Samples;Min_cycle;Max_cycle;Signal;HPM_P1;HPM_P2
2021/12/18 00:00:44;;;;;;;25.80;16.27;;;5.30;99.90;;;;;;5030766;28;20203;-68
2021/12/18 00:03:10;;;;;;;25.80;16.17;;;5.40;99.90;;;;;;5030876;28;20221;-67
2021/12/18 00:05:36;;;;;;;25.20;16.57;;;5.40;99.90;;;;;;5030756;28;20207;-68
2021/12/18 00:08:02;;;;;;;23.20;17.70;;;5.40;99.90;;;;;;5030911;28;20179;-68
2021/12/18 00:10:29;;;;;;;29.77;17.70;;;5.50;99.90;;;;;;5030762;28;20242;-67
2021/12/18 00:12:55;;;;;;;26.97;17.40;;;5.50;99.90;;;;;;5033583;28;20183;-67
2021/12/18 00:15:22;;;;;;;27.17;17.03;;;5.60;99.90;;;;;;5034474;28;20645;-67
2021/12/18 00:17:47;;;;;;;23.47;17.63;;;5.70;99.90;;;;;;5033673;28;20641;-64
2021/12/18 00:20:15;;;;;;;28.57;17.60;;;5.70;99.90;;;;;;5033879;28;20199;-67
2021/12/18 00:22:42;;;;;;;21.67;15.93;;;5.70;99.90;;;;;;5033879;28;20167;-68
2021/12/18 00:25:09;;;;;;;21.33;16.43;;;5.70;99.90;;;;;;5034372;28;20228;-68
2021/12/18 00:27:35;;;;;;;24.07;16.63;;;5.70;99.90;;;;;;5034099;28;20179;-68
2021/12/18 00:30:01;;;;;;;27.60;18.20;;;5.70;99.90;;;;;;5033963;28;20187;-67
2021/12/18 00:32:26;;;;;;;28.47;18.50;;;5.70;99.90;;;;;;5033751;28;20236;-68
2021/12/18 00:34:52;;;;;;;25.30;17.20;;;5.70;99.90;;;;;;5034195;28;20258;-65
2021/12/18 00:37:18;;;;;;;29.00;17.67;;;5.80;99.90;;;;;;5033889;28;20633;-67
2021/12/18 00:39:54;;;;;;;29.63;19.13;;;5.90;99.90;;;;;;5034030;28;20172;-68
2021/12/18 00:44:46;;;;;;;32.83;17.50;;;6.00;99.90;;;;;;5033457;28;20265;-66
2021/12/18 00:47:11;;;;;;;23.60;16.87;;;6.00;99.90;;;;;;5033483;28;20719;-67
2021/12/18 00:49:37;;;;;;;25.87;15.93;;;6.00;99.90;;;;;;5033379;28;20267;-65
2021/12/18 00:52:04;;;;;;;28.30;17.57;;;6.00;99.90;;;;;;5033154;28;20187;-66
2021/12/18 00:54:31;;;;;;;28.33;17.27;;;5.90;99.90;;;;;;5033369;28;20274;-67
2021/12/18 00:56:56;;;;;;;26.10;15.97;;;5.90;99.90;;;;;;5033602;28;20167;-66
2021/12/18 00:59:22;;;;;;;26.27;16.23;;;6.00;99.90;;;;;;5033172;28;20245;-65
2021/12/18 01:01:48;;;;;;;27.63;18.90;;;6.00;99.90;;;;;;5033207;28;20564;-65
2021/12/18 01:04:13;;;;;;;34.13;19.60;;;6.00;99.90;;;;;;5032943;28;20179;-66
2021/12/18 01:06:39;;;;;;;29.57;16.67;;;6.00;99.90;;;;;;5032929;28;20282;-66
2021/12/18 01:09:05;;;;;;;28.90;18.47;;;6.10;99.90;;;;;;5033074;28;20175;-66
2021/12/18 01:11:33;;;;;;;29.33;19.37;;;6.20;99.90;;;;;;5033254;28;20192;-66
2021/12/18 01:22:44;;;;;;;24.70;18.17;;;6.50;99.90;;;;;;5032075;28;20202;-66
2021/12/18 01:24:49;;;;;;;29.80;18.73;;;6.60;99.90;;;;;;5032849;28;20630;-67
2021/12/18 01:27:15;;;;;;;25.87;17.20;;;6.70;99.90;;;;;;5032628;28;20251;-66
2021/12/18 01:29:40;;;;;;;27.73;19.10;;;6.70;99.90;;;;;;5032831;28;20164;-65
2021/12/18 01:32:07;;;;;;;28.40;17.63;;;6.70;99.90;;;;;;5032388;28;20205;-65
2021/12/18 01:34:33;;;;;;;24.20;18.10;;;6.70;99.90;;;;;;5032858;28;20523;-65
2021/12/18 01:36:58;;;;;;;26.60;17.77;;;6.70;99.90;;;;;;5032657;28;20243;-65
2021/12/18 01:39:24;;;;;;;22.80;16.20;;;6.80;99.90;;;;;;5032125;28;20179;-65
2021/12/18 01:44:55;;;;;;;21.33;16.53;;;6.90;99.90;;;;;;5021598;28;20179;-66
2021/12/18 01:52:53;;;;;;;22.33;17.67;;;6.90;99.90;;;;;;5015735;28;20170;-66
2021/12/18 01:55:32;;;;;;;24.37;17.00;;;6.80;99.90;;;;;;5031582;28;20213;-66
2021/12/18 01:57:58;;;;;;;22.90;17.10;;;6.90;99.90;;;;;;5030812;28;20175;-66
2021/12/18 02:00:27;;;;;;;23.40;17.60;;;6.90;99.90;;;;;;5028565;28;20178;-66
2021/12/18 02:02:53;;;;;;;24.83;17.07;;;6.90;99.90;;;;;;5031777;28;20584;-65
2021/12/18 02:05:19;;;;;;;24.50;18.00;;;6.90;99.90;;;;;;5032113;28;20217;-65
2021/12/18 02:07:45;;;;;;;22.63;16.80;;;6.90;99.90;;;;;;5031931;28;20656;-64
2021/12/18 02:10:18;;;;;;;20.50;15.67;;;7.00;99.90;;;;;;5031893;28;20172;-65
2021/12/18 02:20:47;;;;;;;26.13;16.87;;;7.20;99.90;;;;;;5031825;28;20202;-66
2021/12/18 02:23:13;;;;;;;19.83;16.37;;;7.20;99.90;;;;;;5031488;28;20528;-66
2021/12/18 02:25:39;;;;;;;20.03;15.73;;;7.20;99.90;;;;;;5031642;28;20284;-66
2021/12/18 02:28:13;;;;;;;18.97;14.63;;;7.20;99.90;;;;;;5031488;28;20176;-66
2021/12/18 02:30:39;;;;;;;20.13;16.23;;;7.10;99.90;;;;;;5031724;28;20187;-66
2021/12/18 02:33:05;;;;;;;18.83;15.80;;;7.20;99.90;;;;;;5031415;28;20237;-66
2021/12/18 02:35:36;;;;;;;20.60;16.87;;;7.20;99.90;;;;;;5030962;28;20215;-66
2021/12/18 02:38:14;;;;;;;16.17;14.53;;;7.20;99.90;;;;;;5031742;28;20175;-66
2021/12/18 02:43:09;;;;;;;20.30;15.20;;;7.20;99.90;;;;;;5031861;28;20167;-66
2021/12/18 02:45:35;;;;;;;19.30;15.67;;;7.30;99.90;;;;;;5031274;28;20202;-66
2021/12/18 02:48:00;;;;;;;23.97;16.70;;;7.30;99.90;;;;;;5030980;28;20168;-66
2021/12/18 02:50:26;;;;;;;22.67;16.07;;;7.30;99.90;;;;;;5031535;28;20172;-67
2021/12/18 02:52:52;;;;;;;23.77;18.07;;;7.30;99.90;;;;;;5030810;28;20199;-65
2021/12/18 02:55:17;;;;;;;25.60;16.97;;;7.30;99.90;;;;;;5031657;28;20176;-66
2021/12/18 02:57:43;;;;;;;24.30;17.00;;;7.30;99.90;;;;;;5030967;28;20195;-66
2021/12/18 03:00:09;;;;;;;19.63;15.53;;;7.30;99.90;;;;;;5031183;28;20176;-66
2021/12/18 03:02:40;;;;;;;25.20;17.97;;;7.20;99.90;;;;;;5030584;28;20190;-67
2021/12/18 03:05:10;;;;;;;27.57;17.50;;;7.20;99.90;;;;;;5031484;28;20163;-66
2021/12/18 03:07:36;;;;;;;28.17;19.20;;;7.10;99.90;;;;;;5030730;28;20306;-65
2021/12/18 03:23:45;;;;;;;28.63;19.73;;;7.10;99.90;;;;;;5030795;28;20461;-66
2021/12/18 03:26:13;;;;;;;25.83;18.10;;;7.10;99.90;;;;;;5029804;28;20700;-66
2021/12/18 03:28:38;;;;;;;24.53;18.17;;;7.10;99.90;;;;;;5030576;28;20542;-65
2021/12/18 03:31:04;;;;;;;23.40;17.67;;;7.20;99.90;;;;;;5031180;28;20199;-65
2021/12/18 03:33:30;;;;;;;28.10;18.00;;;7.20;99.90;;;;;;5030953;28;20596;-65
2021/12/18 03:35:56;;;;;;;24.80;17.47;;;7.20;99.90;;;;;;5030653;28;20203;-65
2021/12/18 03:38:22;;;;;;;27.50;18.57;;;7.30;99.90;;;;;;5031101;28;20657;-65
2021/12/18 03:40:48;;;;;;;26.00;18.40;;;7.30;99.90;;;;;;5030641;28;20660;-64
2021/12/18 03:43:14;;;;;;;31.03;19.90;;;7.30;99.90;;;;;;5030924;28;20199;-66
2021/12/18 03:45:40;;;;;;;29.23;19.47;;;7.40;99.90;;;;;;5031913;28;20203;-66
2021/12/18 03:48:05;;;;;;;34.03;19.17;;;7.40;99.90;;;;;;5034794;28;20174;-64
2021/12/18 03:50:31;;;;;;;23.47;19.23;;;7.40;99.90;;;;;;5034772;28;20203;-66
2021/12/18 03:52:57;;;;;;;23.47;17.73;;;7.40;99.90;;;;;;5034851;28;20172;-66
2021/12/18 03:55:23;;;;;;;25.53;18.57;;;7.40;99.90;;;;;;5034852;28;20221;-66
2021/12/18 03:57:48;;;;;;;31.17;18.97;;;7.40;99.90;;;;;;5034824;28;20202;-66
2021/12/18 04:00:16;;;;;;;30.07;19.73;;;7.50;99.90;;;;;;5034410;28;20172;-66
2021/12/18 04:02:43;;;;;;;25.80;17.47;;;7.50;99.90;;;;;;5034437;28;20513;-65
2021/12/18 04:05:09;;;;;;;24.33;18.20;;;7.50;99.90;;;;;;5034688;28;20661;-65
2021/12/18 04:07:41;;;;;;;25.10;18.70;;;7.50;99.90;;;;;;5034628;28;20221;-65
2021/12/18 04:10:09;;;;;;;25.03;18.27;;;7.40;99.90;;;;;;5034385;28;20172;-65
2021/12/18 04:12:35;;;;;;;30.97;19.40;;;7.40;99.90;;;;;;5034595;28;20172;-66
2021/12/18 04:15:00;;;;;;;28.60;19.07;;;7.40;99.90;;;;;;5034231;28;20179;-65
2021/12/18 04:17:26;;;;;;;27.50;19.03;;;7.40;99.90;;;;;;5034209;28;20540;-66
2021/12/18 04:19:51;;;;;;;28.40;19.07;;;7.40;99.90;;;;;;5034073;28;20183;-66
2021/12/18 04:22:17;;;;;;;28.50;19.10;;;7.40;99.90;;;;;;5033068;28;20238;-66
2021/12/18 04:24:42;;;;;;;20.17;16.27;;;7.50;99.90;;;;;;5033280;28;20278;-66
2021/12/18 04:27:08;;;;;;;25.23;17.40;;;7.40;99.90;;;;;;5034042;28;20210;-67
2021/12/18 04:29:34;;;;;;;28.23;19.70;;;7.40;99.90;;;;;;5034061;28;20525;-65
2021/12/18 04:32:00;;;;;;;26.80;17.17;;;7.40;99.90;;;;;;5033313;28;20191;-66
2021/12/18 04:34:26;;;;;;;26.07;19.20;;;7.40;99.90;;;;;;5032914;28;20258;-66
2021/12/18 04:36:51;;;;;;;26.50;17.23;;;7.40;99.90;;;;;;5033667;28;20207;-66
2021/12/18 04:39:17;;;;;;;26.40;17.40;;;7.50;99.90;;;;;;5033933;28;20663;-64
2021/12/18 04:41:49;;;;;;;27.67;17.90;;;7.50;99.90;;;;;;5033656;28;20265;-64
2021/12/18 04:44:15;;;;;;;23.00;17.33;;;7.60;99.90;;;;;;5033275;28;20179;-65
2021/12/18 04:46:41;;;;;;;25.67;17.53;;;7.60;99.90;;;;;;5032145;28;20557;-66
2021/12/18 04:49:07;;;;;;;27.17;17.10;;;7.60;99.90;;;;;;5033582;28;20195;-65
2021/12/18 04:51:33;;;;;;;25.50;17.20;;;7.60;99.90;;;;;;5033349;28;20547;-65
2021/12/18 04:53:58;;;;;;;23.93;17.00;;;7.60;99.90;;;;;;5033335;28;20246;-65
2021/12/18 04:56:24;;;;;;;25.40;17.27;;;7.50;99.90;;;;;;5033354;28;20182;-67
2021/12/18 04:58:50;;;;;;;25.27;17.33;;;7.60;99.90;;;;;;5032600;28;20649;-65
2021/12/18 05:01:16;;;;;;;25.50;17.67;;;7.50;99.90;;;;;;5033299;28;20210;-66
2021/12/18 05:03:43;;;;;;;21.30;17.03;;;7.50;99.90;;;;;;5033071;28;20167;-66
2021/12/18 05:06:09;;;;;;;26.53;17.47;;;7.50;99.90;;;;;;5032927;28;20276;-65
2021/12/18 05:08:35;;;;;;;27.77;18.10;;;7.40;99.90;;;;;;5033210;28;20168;-67
2021/12/18 05:11:00;;;;;;;23.50;16.93;;;7.40;99.90;;;;;;5032750;28;20196;-64
2021/12/18 05:13:26;;;;;;;24.47;17.70;;;7.40;99.90;;;;;;5033043;28;20171;-66
2021/12/18 05:15:52;;;;;;;24.63;19.43;;;7.40;99.90;;;;;;5031407;28;20182;-66
2021/12/18 05:18:17;;;;;;;24.77;16.77;;;7.40;99.90;;;;;;5032694;28;20590;-65
2021/12/18 05:20:43;;;;;;;26.33;18.00;;;7.40;99.90;;;;;;5032243;28;20207;-66
2021/12/18 05:23:08;;;;;;;28.00;17.77;;;7.30;99.90;;;;;;5032325;28;20179;-65
2021/12/18 05:25:34;;;;;;;24.67;17.97;;;7.40;99.90;;;;;;5032742;28;20687;-66
2021/12/18 05:28:00;;;;;;;25.67;19.00;;;7.30;99.90;;;;;;5032570;28;20175;-65
2021/12/18 05:30:25;;;;;;;23.40;17.37;;;7.20;99.90;;;;;;5032822;28;20633;-66
2021/12/18 05:32:51;;;;;;;31.43;18.57;;;7.10;99.90;;;;;;5032313;28;20184;-67
2021/12/18 05:35:18;;;;;;;28.97;18.33;;;7.10;99.90;;;;;;5032940;28;20174;-65
2021/12/18 05:40:11;;;;;;;24.30;17.20;;;7.00;99.90;;;;;;5032413;28;20168;-66
2021/12/18 05:42:36;;;;;;;31.47;20.30;;;6.90;99.90;;;;;;5032236;28;20256;-64
2021/12/18 05:45:04;;;;;;;25.37;17.07;;;6.80;99.90;;;;;;5026577;28;20226;-65
2021/12/18 05:47:30;;;;;;;21.80;15.97;;;6.90;99.90;;;;;;5012679;28;20254;-65
2021/12/18 05:49:56;;;;;;;26.33;16.50;;;6.90;99.90;;;;;;5012664;28;20637;-64
2021/12/18 05:52:23;;;;;;;27.60;17.77;;;6.90;99.90;;;;;;5031718;28;20280;-64
2021/12/18 05:54:49;;;;;;;28.20;18.70;;;6.90;99.90;;;;;;5032307;28;20633;-65
2021/12/18 05:57:14;;;;;;;24.60;17.40;;;6.90;99.90;;;;;;5032078;28;20178;-65
2021/12/18 05:59:41;;;;;;;22.73;16.83;;;6.90;99.90;;;;;;5032323;28;20176;-65
2021/12/18 06:02:07;;;;;;;27.13;18.33;;;6.90;99.90;;;;;;5031564;28;20214;-65
2021/12/18 06:04:33;;;;;;;27.30;18.73;;;6.80;99.90;;;;;;5032332;28;20177;-66
2021/12/18 06:07:04;;;;;;;29.07;19.30;;;6.80;99.90;;;;;;5031863;28;20553;-66
2021/12/18 06:09:31;;;;;;;31.10;19.10;;;6.80;99.90;;;;;;5031258;28;20171;-66
2021/12/18 06:11:58;;;;;;;26.50;17.53;;;6.90;99.90;;;;;;5031617;28;20562;-63
2021/12/18 06:14:24;;;;;;;29.33;18.80;;;6.90;99.90;;;;;;5031746;28;20250;-65
2021/12/18 06:16:50;;;;;;;27.20;17.83;;;6.90;99.90;;;;;;5031610;28;20258;-65
2021/12/18 06:19:15;;;;;;;30.47;17.63;;;6.90;99.90;;;;;;5031785;28;20183;-66
2021/12/18 06:21:41;;;;;;;30.73;17.53;;;6.80;99.90;;;;;;5031469;28;20207;-66
2021/12/18 06:24:07;;;;;;;28.57;17.57;;;6.80;99.90;;;;;;5031216;28;20175;-66
2021/12/18 06:26:33;;;;;;;33.80;18.23;;;6.90;99.90;;;;;;5032164;28;20619;-66
2021/12/18 06:28:58;;;;;;;30.90;18.00;;;6.80;99.90;;;;;;5031500;28;20172;-66
2021/12/18 06:31:24;;;;;;;28.50;17.90;;;6.80;99.90;;;;;;5032185;28;20569;-67
2021/12/18 06:33:50;;;;;;;27.43;17.17;;;6.80;99.90;;;;;;5031143;28;20645;-66
2021/12/18 06:36:15;;;;;;;29.83;17.17;;;6.80;99.90;;;;;;5031635;28;20197;-66
2021/12/18 06:38:41;;;;;;;28.10;18.73;;;6.80;99.90;;;;;;5031228;28;20176;-65
2021/12/18 06:41:07;;;;;;;35.33;18.17;;;6.90;99.90;;;;;;5031989;28;20676;-66
2021/12/18 06:43:32;;;;;;;26.87;17.13;;;7.00;99.90;;;;;;5031227;28;20270;-66
2021/12/18 06:45:58;;;;;;;32.97;18.23;;;7.10;99.90;;;;;;5031343;28;20257;-66
2021/12/18 06:48:23;;;;;;;33.03;18.63;;;7.10;99.90;;;;;;5031284;28;20172;-65
2021/12/18 06:50:50;;;;;;;28.50;16.73;;;7.20;99.90;;;;;;5029561;28;20400;-65
2021/12/18 06:53:16;;;;;;;35.77;18.47;;;7.20;99.90;;;;;;5030929;28;20183;-65
2021/12/18 06:55:42;;;;;;;29.20;18.27;;;7.20;99.90;;;;;;5031103;28;20514;-65
2021/12/18 06:58:08;;;;;;;29.53;17.20;;;7.20;99.90;;;;;;5031020;28;20172;-66
2021/12/18 07:00:33;;;;;;;28.97;17.87;;;7.20;99.90;;;;;;5031204;28;20381;-67
2021/12/18 07:02:59;;;;;;;28.97;17.00;;;7.30;99.90;;;;;;5030761;28;20273;-65
2021/12/18 07:05:25;;;;;;;29.37;16.53;;;7.30;99.90;;;;;;5031229;28;20167;-64
2021/12/18 07:07:51;;;;;;;26.07;17.83;;;7.20;99.90;;;;;;5030770;28;20183;-65
2021/12/18 07:10:18;;;;;;;26.33;18.27;;;7.20;99.90;;;;;;5031078;28;20172;-66
2021/12/18 07:12:43;;;;;;;29.67;19.00;;;7.20;99.90;;;;;;5030735;28;20171;-66
2021/12/18 07:15:10;;;;;;;30.53;17.77;;;7.10;99.90;;;;;;5031314;28;20175;-66
2021/12/18 07:17:36;;;;;;;26.00;17.13;;;7.10;99.90;;;;;;5030857;28;20699;-67
2021/12/18 07:20:04;;;;;;;27.07;18.03;;;7.10;99.90;;;;;;5031106;28;20176;-65
2021/12/18 07:22:30;;;;;;;33.63;17.73;;;7.10;99.90;;;;;;5034781;28;20248;-66
2021/12/18 07:24:55;;;;;;;24.63;17.03;;;7.00;99.90;;;;;;5034916;28;20187;-65
2021/12/18 07:27:21;;;;;;;32.27;17.07;;;7.00;99.90;;;;;;5035176;28;20202;-66
2021/12/18 07:29:47;;;;;;;30.13;16.73;;;6.90;99.90;;;;;;5034528;28;20250;-66
2021/12/18 07:32:13;;;;;;;29.03;17.70;;;6.90;99.90;;;;;;5033334;28;20194;-65
2021/12/18 07:34:38;;;;;;;35.17;19.43;;;6.80;99.90;;;;;;5034535;28;20164;-65
2021/12/18 07:37:04;;;;;;;40.03;19.83;;;6.80;99.90;;;;;;5034878;28;20179;-65
2021/12/18 07:39:30;;;;;;;35.33;19.97;;;6.70;99.90;;;;;;5034569;28;20529;-65
2021/12/18 07:41:55;;;;;;;34.73;18.67;;;6.70;99.90;;;;;;5034205;28;20219;-65
2021/12/18 07:44:21;;;;;;;34.20;17.43;;;6.60;99.90;;;;;;5034555;28;20197;-66
2021/12/18 07:46:47;;;;;;;32.53;19.47;;;6.60;99.90;;;;;;5034360;28;20207;-66
2021/12/18 07:49:12;;;;;;;36.63;19.63;;;6.60;99.90;;;;;;5034342;28;20222;-65
2021/12/18 07:51:38;;;;;;;33.20;18.13;;;6.50;99.90;;;;;;5034531;28;20628;-65
2021/12/18 07:54:06;;;;;;;26.70;18.10;;;6.50;99.90;;;;;;5032625;28;20630;-66
2021/12/18 07:56:33;;;;;;;30.60;18.33;;;6.40;99.90;;;;;;5034702;28;20592;-66
2021/12/18 07:58:59;;;;;;;30.17;18.77;;;6.40;99.90;;;;;;5032912;28;20261;-66
2021/12/18 08:01:24;;;;;;;36.10;18.67;;;6.40;99.90;;;;;;5034410;28;20219;-65
2021/12/18 08:03:50;;;;;;;32.53;17.27;;;6.40;99.90;;;;;;5033904;28;20615;-66
2021/12/18 08:06:16;;;;;;;34.13;18.10;;;6.40;99.90;;;;;;5034125;28;20206;-65
2021/12/18 08:08:42;;;;;;;39.20;19.30;;;6.40;99.90;;;;;;5034059;28;20179;-67
2021/12/18 08:11:08;;;;;;;41.07;18.87;;;6.50;99.90;;;;;;5034374;28;20688;-67
2021/12/18 08:13:33;;;;;;;37.10;20.50;;;6.50;99.90;;;;;;5033700;28;20319;-66
2021/12/18 08:15:59;;;;;;;37.13;18.77;;;6.50;99.90;;;;;;5033951;28;20645;-66
2021/12/18 08:18:25;;;;;;;37.73;19.97;;;6.50;99.90;;;;;;5032770;28;20254;-66
2021/12/18 08:20:50;;;;;;;36.70;20.63;;;6.50;99.90;;;;;;5032699;28;20222;-64
2021/12/18 08:23:16;;;;;;;35.87;19.63;;;6.60;99.90;;;;;;5033840;28;20171;-67
2021/12/18 08:25:42;;;;;;;36.20;21.27;;;6.50;99.90;;;;;;5033742;28;20175;-68
2021/12/18 08:28:07;;;;;;;33.77;20.53;;;6.50;99.90;;;;;;5032970;28;20467;-68
2021/12/18 08:30:36;;;;;;;40.20;20.57;;;6.50;99.90;;;;;;5032989;28;20245;-67
2021/12/18 08:33:02;;;;;;;42.97;20.80;;;6.50;99.90;;;;;;5031400;28;20175;-67
2021/12/18 08:35:30;;;;;;;43.83;18.97;;;6.50;99.90;;;;;;5033185;28;20662;-66
2021/12/18 08:37:57;;;;;;;36.33;21.63;;;6.50;99.90;;;;;;5033736;28;20175;-65
2021/12/18 08:40:24;;;;;;;41.10;20.67;;;6.50;99.90;;;;;;5033255;28;20457;-66
2021/12/18 08:42:50;;;;;;;40.83;22.20;;;6.50;99.90;;;;;;5033525;28;20651;-65
2021/12/18 08:45:16;;;;;;;49.77;20.83;;;6.60;99.90;;;;;;5033953;28;20181;-67
2021/12/18 08:47:42;;;;;;;36.17;20.80;;;6.60;99.90;;;;;;5032946;28;20203;-67
2021/12/18 08:50:10;;;;;;;46.40;19.73;;;6.60;99.90;;;;;;5032540;28;20168;-67
2021/12/18 08:52:37;;;;;;;43.33;21.40;;;6.70;99.90;;;;;;5033290;28;20225;-66
2021/12/18 08:55:04;;;;;;;44.50;20.67;;;6.70;99.90;;;;;;5033255;28;20180;-66
2021/12/18 08:57:30;;;;;;;48.47;21.53;;;6.70;99.90;;;;;;5032387;28;20179;-66
2021/12/18 08:59:56;;;;;;;43.80;20.80;;;6.80;99.90;;;;;;5033052;28;20605;-66
2021/12/18 09:02:22;;;;;;;39.13;21.20;;;6.80;99.90;;;;;;5033246;28;20267;-66
2021/12/18 09:04:49;;;;;;;40.30;19.03;;;6.90;99.90;;;;;;5032924;28;20263;-67
2021/12/18 09:07:15;;;;;;;37.43;19.63;;;7.00;99.90;;;;;;5031869;28;20203;-66
2021/12/18 09:09:40;;;;;;;43.27;19.40;;;7.10;99.90;;;;;;5033536;28;20168;-66
2021/12/18 09:12:08;;;;;;;35.23;19.40;;;7.10;99.90;;;;;;5033007;28;20195;-65
2021/12/18 09:14:34;;;;;;;36.33;19.07;;;7.20;99.90;;;;;;5032151;28;20172;-66
2021/12/18 09:17:00;;;;;;;34.37;18.77;;;7.30;99.90;;;;;;5032330;28;20179;-65
2021/12/18 09:19:25;;;;;;;38.07;18.50;;;7.30;99.90;;;;;;5032035;28;20266;-67
2021/12/18 09:21:51;;;;;;;28.97;17.40;;;7.40;99.90;;;;;;5032795;28;20702;-65
2021/12/18 09:24:17;;;;;;;33.37;18.07;;;7.30;99.90;;;;;;5032752;28;20258;-65
2021/12/18 09:26:42;;;;;;;38.23;18.93;;;7.30;99.90;;;;;;5032827;28;20233;-68
2021/12/18 09:29:08;;;;;;;32.97;16.87;;;7.30;99.90;;;;;;5033168;28;20190;-67
2021/12/18 09:31:34;;;;;;;36.03;19.17;;;7.30;99.90;;;;;;5032623;28;20270;-66
2021/12/18 09:34:00;;;;;;;34.00;19.33;;;7.30;99.90;;;;;;5031288;28;20210;-67
2021/12/18 09:36:26;;;;;;;43.53;20.43;;;7.40;99.90;;;;;;5032773;28;20171;-67
2021/12/18 09:38:52;;;;;;;35.47;20.23;;;7.40;99.90;;;;;;5031838;28;20233;-68
2021/12/18 09:41:17;;;;;;;37.77;20.47;;;7.40;99.90;;;;;;5028789;28;20208;-67
2021/12/18 09:43:43;;;;;;;37.97;18.93;;;7.40;99.90;;;;;;5011271;28;20176;-66
2021/12/18 09:46:11;;;;;;;42.20;20.13;;;7.50;99.90;;;;;;5020659;28;20284;-71
2021/12/18 09:48:40;;;;;;;36.70;19.80;;;7.50;99.90;;;;;;5032503;28;20195;-66
2021/12/18 09:51:13;;;;;;;34.37;18.17;;;7.60;99.90;;;;;;5032329;28;20591;-66
2021/12/18 09:53:39;;;;;;;39.57;17.93;;;7.60;99.90;;;;;;5032354;28;20163;-67
2021/12/18 09:56:06;;;;;;;39.00;18.57;;;7.60;99.90;;;;;;5031882;28;20187;-67
2021/12/18 09:58:33;;;;;;;35.13;18.87;;;7.70;99.90;;;;;;5032302;28;20239;-67
2021/12/18 10:00:59;;;;;;;32.00;17.97;;;7.70;99.90;;;;;;5032082;28;20202;-66
2021/12/18 10:03:45;;;;;;;44.73;19.93;;;7.70;99.90;;;;;;5031960;28;20233;-66
2021/12/18 10:06:34;;;;;;;37.80;20.43;;;7.60;99.90;;;;;;5032197;28;20797;-67
2021/12/18 10:09:00;;;;;;;44.33;22.13;;;7.70;99.90;;;;;;5032241;28;20171;-66
2021/12/18 10:11:25;;;;;;;42.87;21.27;;;7.70;99.90;;;;;;5032030;28;20370;-66
2021/12/18 10:13:54;;;;;;;45.27;19.57;;;7.70;99.90;;;;;;5031696;28;20510;-66
2021/12/18 10:16:21;;;;;;;39.57;18.77;;;7.80;99.90;;;;;;5031606;28;20202;-66
2021/12/18 10:18:47;;;;;;;36.73;19.17;;;7.90;99.90;;;;;;5030616;28;20176;-67
2021/12/18 10:21:16;;;;;;;36.83;20.53;;;7.90;99.90;;;;;;5031566;28;20202;-66
2021/12/18 10:23:44;;;;;;;41.60;21.43;;;7.80;99.90;;;;;;5031504;28;20175;-67
2021/12/18 10:26:37;;;;;;;37.17;19.70;;;7.80;99.90;;;;;;5030434;28;20298;-67
2021/12/18 10:29:22;;;;;;;36.53;18.90;;;7.80;99.90;;;;;;5031639;28;20576;-67
2021/12/18 10:31:48;;;;;;;36.37;17.77;;;7.80;99.90;;;;;;5030444;28;20215;-68
2021/12/18 10:34:23;;;;;;;32.50;18.23;;;7.70;99.90;;;;;;5031155;28;20254;-66
2021/12/18 10:37:10;;;;;;;36.50;19.63;;;7.60;99.90;;;;;;5031496;28;20203;-69
2021/12/18 10:40:00;;;;;;;29.10;17.67;;;7.60;99.90;;;;;;5031238;28;20245;-67
2021/12/18 10:42:50;;;;;;;37.73;18.90;;;7.50;99.90;;;;;;5027938;28;20302;-68
2021/12/18 10:45:25;;;;;;;27.60;17.83;;;7.50;99.90;;;;;;5030583;28;20186;-67
2021/12/18 10:48:01;;;;;;;33.80;18.87;;;7.60;99.90;;;;;;5011655;28;20207;-67
2021/12/18 10:50:40;;;;;;;37.90;20.27;;;7.70;99.90;;;;;;5011715;28;20172;-67
2021/12/18 10:53:30;;;;;;;28.87;17.87;;;7.70;99.90;;;;;;5030670;28;20175;-69
2021/12/18 10:56:00;;;;;;;34.77;21.23;;;7.80;99.90;;;;;;5030377;28;20256;-69
2021/12/18 10:58:38;;;;;;;39.50;19.93;;;7.90;99.90;;;;;;5031345;28;20188;-66
2021/12/18 11:01:15;;;;;;;33.57;18.63;;;8.00;99.90;;;;;;5030705;28;20230;-66
2021/12/18 11:03:49;;;;;;;27.60;16.67;;;8.00;99.90;;;;;;5030693;28;20538;-67
2021/12/18 11:06:25;;;;;;;38.03;17.37;;;8.00;99.90;;;;;;5031106;28;20260;-67
2021/12/18 11:08:58;;;;;;;30.47;17.83;;;7.90;99.90;;;;;;5031242;28;20200;-67
2021/12/18 11:13:58;;;;;;;30.77;17.60;;;7.80;99.90;;;;;;5030701;28;20175;-66
2021/12/18 11:16:25;;;;;;;26.33;16.53;;;7.90;99.90;;;;;;5030833;28;20706;-68
2021/12/18 11:18:54;;;;;;;27.87;14.73;;;7.90;99.90;;;;;;5030940;28;20178;-65
2021/12/18 11:21:23;;;;;;;26.73;15.20;;;7.90;99.90;;;;;;5030834;28;20199;-68
2021/12/18 11:24:06;;;;;;;23.60;15.07;;;8.00;99.90;;;;;;5030733;28;20186;-67
2021/12/18 11:26:41;;;;;;;30.63;16.63;;;8.10;99.90;;;;;;5030590;28;20231;-67
2021/12/18 11:29:18;;;;;;;31.97;17.47;;;8.00;99.90;;;;;;5030839;28;20186;-67
2021/12/18 11:31:46;;;;;;;31.93;17.27;;;8.10;99.90;;;;;;5030908;28;20218;-67
2021/12/18 11:34:12;;;;;;;28.73;16.30;;;8.10;99.90;;;;;;5030551;28;20184;-67
2021/12/18 11:36:40;;;;;;;27.67;15.80;;;8.10;99.90;;;;;;5031097;28;20186;-67
2021/12/18 11:39:08;;;;;;;27.53;14.93;;;8.20;99.90;;;;;;5030835;28;20182;-69
2021/12/18 11:41:34;;;;;;;25.83;16.07;;;8.30;99.90;;;;;;5029843;28;20628;-69
2021/12/18 11:44:00;;;;;;;27.67;14.37;;;8.30;99.90;;;;;;5029519;28;20573;-66
2021/12/18 11:46:37;;;;;;;23.00;14.03;;;8.30;99.90;;;;;;5030294;28;20257;-68
2021/12/18 11:49:10;;;;;;;29.50;15.40;;;8.30;99.90;;;;;;5030788;28;20206;-67
2021/12/18 11:51:37;;;;;;;27.73;16.80;;;8.30;99.90;;;;;;5030865;28;20286;-68
2021/12/18 11:54:24;;;;;;;24.43;15.23;;;8.30;99.90;;;;;;5029215;28;20273;-67
2021/12/18 11:56:50;;;;;;;29.37;16.00;;;8.30;99.90;;;;;;5030277;28;20249;-67
2021/12/18 11:59:41;;;;;;;30.07;16.37;;;8.10;99.90;;;;;;5031206;28;20535;-67
2021/12/18 12:02:08;;;;;;;30.40;16.70;;;8.10;99.90;;;;;;5029291;28;20195;-66
2021/12/18 12:05:14;;;;;;;23.87;16.13;;;8.10;99.90;;;;;;5031213;28;20164;-68
2021/12/18 12:07:44;;;;;;;26.70;16.03;;;8.20;99.90;;;;;;5013871;28;20211;-67
2021/12/18 12:10:44;;;;;;;26.57;16.67;;;8.20;99.90;;;;;;5015863;28;20174;-68
2021/12/18 12:13:05;;;;;;;30.23;17.97;;;8.30;99.90;;;;;;5026934;28;20196;-65
2021/12/18 12:15:31;;;;;;;29.10;17.37;;;8.40;99.90;;;;;;5033220;28;20186;-66
2021/12/18 12:18:06;;;;;;;35.43;16.23;;;8.40;99.90;;;;;;5033697;28;20191;-68
2021/12/18 12:20:34;;;;;;;31.63;16.77;;;8.30;99.90;;;;;;5034226;28;20730;-68
2021/12/18 12:23:02;;;;;;;33.53;16.80;;;8.40;99.90;;;;;;5033861;28;20183;-67
2021/12/18 12:25:38;;;;;;;27.00;15.97;;;8.40;99.90;;;;;;5034218;28;20258;-67
2021/12/18 12:28:08;;;;;;;29.13;17.27;;;8.30;99.90;;;;;;5033937;28;20179;-67
2021/12/18 12:30:46;;;;;;;33.30;17.17;;;8.40;99.90;;;;;;5033374;28;20199;-66
2021/12/18 12:33:30;;;;;;;35.40;18.33;;;8.40;99.90;;;;;;5033757;28;20168;-66
2021/12/18 12:36:04;;;;;;;28.03;16.83;;;8.30;99.90;;;;;;5032938;28;20637;-67
2021/12/18 12:38:57;;;;;;;30.77;18.97;;;8.20;99.90;;;;;;5033775;28;20258;-67
2021/12/18 12:41:26;;;;;;;29.60;16.80;;;8.20;99.90;;;;;;5033495;28;20631;-66
2021/12/18 12:43:53;;;;;;;31.73;17.07;;;8.30;99.90;;;;;;5032238;28;20187;-66
2021/12/18 12:46:20;;;;;;;29.70;15.50;;;8.20;99.90;;;;;;5033611;28;20203;-65
2021/12/18 12:49:03;;;;;;;33.37;17.30;;;8.20;99.90;;;;;;5033092;28;20664;-66
2021/12/18 12:51:57;;;;;;;25.37;16.23;;;8.10;99.90;;;;;;5033508;28;20249;-65
2021/12/18 12:54:41;;;;;;;25.63;16.20;;;8.10;99.90;;;;;;5033245;28;20183;-66
2021/12/18 12:57:28;;;;;;;26.80;15.03;;;8.20;99.90;;;;;;5032709;28;20524;-65
2021/12/18 13:00:06;;;;;;;27.77;16.33;;;8.30;99.90;;;;;;5033015;28;20217;-64
2021/12/18 13:02:38;;;;;;;28.13;16.07;;;8.30;99.90;;;;;;5032737;28;20200;-66
2021/12/18 13:05:03;;;;;;;27.27;15.23;;;8.30;99.90;;;;;;5033220;28;20720;-67
2021/12/18 13:07:29;;;;;;;24.53;15.53;;;8.30;99.90;;;;;;5033310;28;20295;-67
2021/12/18 13:09:55;;;;;;;24.93;16.17;;;8.30;99.90;;;;;;5032941;28;20653;-67
2021/12/18 13:12:20;;;;;;;22.93;14.73;;;8.40;99.90;;;;;;5032709;28;20709;-67
2021/12/18 13:14:46;;;;;;;24.67;15.30;;;8.50;99.90;;;;;;5032640;28;20179;-68
2021/12/18 13:17:22;;;;;;;24.90;15.87;;;8.40;99.90;;;;;;5033157;28;20247;-67
2021/12/18 13:19:55;;;;;;;34.93;18.57;;;8.30;99.90;;;;;;5031938;28;20203;-67
2021/12/18 13:22:24;;;;;;;26.57;15.77;;;8.40;99.90;;;;;;5032823;28;20262;-66
2021/12/18 13:25:11;;;;;;;30.73;15.50;;;8.50;99.90;;;;;;5032363;28;20175;-66
2021/12/18 13:27:40;;;;;;;30.07;14.97;;;8.50;99.90;;;;;;5032193;28;20223;-66
2021/12/18 13:30:18;;;;;;;25.57;15.17;;;8.60;99.90;;;;;;5032725;28;20179;-66